KFOK/FOK METAR and TAF weather

Enter ICAO airport designator
Station Type Date Time Source
KFOK METAR 2021/07/26 15:53 UTC NOAA

KFOK 261553Z 04005KT 9SM CLR 30/18 A2990 RMK AO2 SLP125 T03000178


Station Type Date Time Source
KFOK Decoded METAR 2021/07/26 15:53 UTC NOAA

THE GABRESKI AIRPORT, NY, United States (KFOK) 40-51N 072-37W 33M
Jul 26, 2021 - 11:53 AM EDT / 2021.07.26 1553 UTC
Wind: from the NE (040 degrees) at 6 MPH (5 KT):0
Visibility: 9 mile(s):0
Sky conditions: clear
Temperature: 86.0 F (30.0 C)
Dew Point: 64.0 F (17.8 C)
Relative Humidity: 48%
Pressure (altimeter): 29.9 in. Hg (1012 hPa)
ob: KFOK 261553Z 04005KT 9SM CLR 30/18 A2990 RMK AO2 SLP125 T03000178
cycle: 16

Station Type Date Time Source
KFOK TAF UTC NOAA

Error!

Example: see airport list